createdAt,value
2023-01-02T00:00:52.150Z,8.85
2023-01-02T00:01:55.226Z,8.93
2023-01-02T00:02:58.158Z,9.93
2023-01-02T00:04:01.117Z,8.60
2023-01-02T00:05:04.188Z,9.40
2023-01-02T00:06:07.680Z,9.27
2023-01-02T00:07:10.385Z,8.82
2023-01-02T00:08:13.241Z,8.57
2023-01-02T00:09:18.244Z,8.75
2023-01-02T00:10:21.095Z,8.85
2023-01-02T00:11:23.852Z,9.30
2023-01-02T00:12:26.602Z,8.82
2023-01-02T00:13:29.309Z,8.88
2023-01-02T00:14:32.071Z,9.23
2023-01-02T00:15:35.781Z,9.35
2023-01-02T00:16:40.806Z,9.00
2023-01-02T00:17:43.556Z,8.60
2023-01-02T00:18:46.360Z,9.73
2023-01-02T00:19:51.776Z,8.30
2023-01-02T00:20:54.539Z,9.23
2023-01-02T00:21:57.425Z,10.23
2023-01-02T00:23:00.175Z,9.05
2023-01-02T00:24:02.857Z,9.60
2023-01-02T00:25:06.240Z,9.52
2023-01-02T00:26:10.320Z,9.13
2023-01-02T00:27:13.100Z,8.68
2023-01-02T00:28:16.194Z,7.88
2023-01-02T00:29:18.862Z,9.88
2023-01-02T00:30:21.586Z,9.10
2023-01-02T00:31:24.465Z,9.30
2023-01-02T00:32:27.203Z,8.98
2023-01-02T00:33:29.860Z,8.90
2023-01-02T00:34:32.650Z,9.40
2023-01-02T00:35:38.253Z,9.35
2023-01-02T00:36:40.990Z,8.82
2023-01-02T00:37:43.870Z,8.63
2023-01-02T00:38:46.572Z,8.65
2023-01-02T00:39:49.250Z,7.60
2023-01-02T00:40:52.412Z,9.50
2023-01-02T00:41:55.182Z,9.27
2023-01-02T00:42:57.987Z,9.15
2023-01-02T00:44:00.729Z,8.65
2023-01-02T00:45:03.512Z,9.48
2023-01-02T00:46:11.514Z,8.25
2023-01-02T00:47:14.944Z,9.10
2023-01-02T00:48:19.243Z,8.80
2023-01-02T00:49:22.033Z,8.50
2023-01-02T00:50:24.721Z,8.60
2023-01-02T00:51:27.542Z,8.45
2023-01-02T00:52:30.508Z,9.52
2023-01-02T00:53:33.222Z,10.10
2023-01-02T00:54:36.141Z,9.00
2023-01-02T00:55:38.877Z,9.20
2023-01-02T00:56:41.527Z,9.55
2023-01-02T00:57:44.344Z,8.75
2023-01-02T00:58:47.200Z,8.43
2023-01-02T00:59:49.932Z,8.93
2023-01-02T01:00:52.965Z,8.77
2023-01-02T01:01:55.761Z,9.45
2023-01-02T01:02:59.602Z,8.43
2023-01-02T01:04:02.674Z,8.35
2023-01-02T01:05:05.928Z,9.07
2023-01-02T01:06:09.984Z,8.60
2023-01-02T01:07:13.674Z,8.48
2023-01-02T01:08:16.426Z,9.07
2023-01-02T01:09:19.179Z,8.52
2023-01-02T01:10:22.537Z,8.70
2023-01-02T01:11:25.272Z,8.23
2023-01-02T01:12:28.119Z,8.48
2023-01-02T01:13:30.843Z,8.85
2023-01-02T01:14:33.672Z,7.68
2023-01-02T01:15:36.556Z,9.60
2023-01-02T01:16:40.219Z,8.82
2023-01-02T01:17:43.657Z,7.80
2023-01-02T01:18:46.855Z,8.10
2023-01-02T01:19:49.568Z,8.77
2023-01-02T01:20:52.228Z,8.98
2023-01-02T01:21:55.048Z,8.48
2023-01-02T01:22:57.763Z,8.60
2023-01-02T01:24:00.449Z,8.45
2023-01-02T01:25:03.565Z,9.73
2023-01-02T01:26:08.641Z,8.93
2023-01-02T01:27:11.435Z,8.90
2023-01-02T01:28:15.526Z,9.18
2023-01-02T01:29:18.292Z,8.57
2023-01-02T01:30:21.396Z,10.10
2023-01-02T01:31:25.022Z,9.00
2023-01-02T01:32:29.597Z,8.60
2023-01-02T01:33:33.239Z,8.35
2023-01-02T01:34:36.163Z,7.72
2023-01-02T01:35:38.830Z,7.82
2023-01-02T01:36:41.625Z,9.13
2023-01-02T01:37:44.442Z,8.13
2023-01-02T01:38:47.907Z,8.27
2023-01-02T01:39:55.394Z,7.53
2023-01-02T01:40:59.821Z,8.40
2023-01-02T01:42:02.639Z,7.72
2023-01-02T01:43:12.774Z,7.85
2023-01-02T01:44:45.876Z,7.82
2023-01-02T01:45:48.722Z,8.32
2023-01-02T01:46:51.497Z,8.35
2023-01-02T01:47:55.700Z,8.50
2023-01-02T01:49:25.153Z,8.60
2023-01-02T01:50:33.892Z,8.95
2023-01-02T01:51:40.787Z,8.23
2023-01-02T01:52:59.414Z,8.95
2023-01-02T01:54:07.671Z,8.02
2023-01-02T01:55:22.076Z,9.02
2023-01-02T01:56:24.979Z,7.70
2023-01-02T01:57:36.577Z,9.30
2023-01-02T01:58:43.613Z,7.82
2023-01-02T01:59:47.179Z,8.35
2023-01-02T02:00:49.995Z,7.80
2023-01-02T02:01:52.899Z,7.95
2023-01-02T02:03:01.786Z,8.35
2023-01-02T02:04:04.749Z,7.50
2023-01-02T02:05:08.311Z,6.97
2023-01-02T02:06:11.337Z,8.35
2023-01-02T02:07:14.566Z,8.15
2023-01-02T02:08:19.655Z,8.27
2023-01-02T02:09:26.600Z,8.70
2023-01-02T02:10:29.525Z,7.88
2023-01-02T02:11:32.624Z,9.43
2023-01-02T02:12:35.776Z,8.68
2023-01-02T02:13:38.762Z,7.28
2023-01-02T02:14:41.625Z,8.23
2023-01-02T02:16:12.421Z,8.82
2023-01-02T02:17:19.714Z,8.75
2023-01-02T02:18:50.031Z,7.13
2023-01-02T02:20:09.708Z,8.65
2023-01-02T02:21:18.222Z,8.23
2023-01-02T02:22:54.239Z,7.82
2023-01-02T02:24:00.048Z,8.20
2023-01-02T02:25:36.695Z,8.57
2023-01-02T02:26:42.537Z,8.27
2023-01-02T02:28:24.315Z,7.85
2023-01-02T02:29:48.628Z,7.88
2023-01-02T02:31:21.455Z,8.00
2023-01-02T02:32:59.092Z,7.80
2023-01-02T02:34:13.685Z,7.95
2023-01-02T02:35:27.815Z,8.63
2023-01-02T02:36:36.473Z,8.43
2023-01-02T02:38:25.707Z,9.45
2023-01-02T02:39:40.052Z,8.00
2023-01-02T02:41:11.345Z,8.30
2023-01-02T02:43:58.881Z,8.15
2023-01-02T02:45:01.503Z,7.60
2023-01-02T02:46:08.700Z,8.40
2023-01-02T02:47:42.946Z,8.05
2023-01-02T02:49:00.715Z,8.15
2023-01-02T02:50:14.073Z,7.80
2023-01-02T02:51:46.570Z,8.70
2023-01-02T02:52:58.287Z,8.70
2023-01-02T02:54:05.855Z,8.10
2023-01-02T02:55:28.915Z,9.40
2023-01-02T02:56:31.936Z,7.80
2023-01-02T02:57:35.363Z,8.98
2023-01-02T02:58:39.645Z,8.50
2023-01-02T02:59:42.707Z,8.18
2023-01-02T03:00:45.898Z,7.57
2023-01-02T03:01:49.020Z,8.48
2023-01-02T03:02:52.887Z,8.05
2023-01-02T03:03:56.045Z,7.97
2023-01-02T03:05:01.840Z,8.88
2023-01-02T03:06:46.077Z,8.70
2023-01-02T03:08:22.094Z,8.40
2023-01-02T03:09:42.654Z,9.15
2023-01-02T03:10:47.554Z,7.88
2023-01-02T03:12:14.325Z,7.65
2023-01-02T03:13:28.402Z,8.77
2023-01-02T03:14:45.333Z,8.85
2023-01-02T03:16:09.809Z,8.13
2023-01-02T03:17:39.705Z,8.02
2023-01-02T03:19:07.995Z,7.60
2023-01-02T03:20:13.993Z,8.23
2023-01-02T03:21:36.993Z,8.75
2023-01-02T03:22:42.528Z,8.18
2023-01-02T03:23:47.743Z,7.95
2023-01-02T03:24:52.987Z,8.15
2023-01-02T03:25:57.668Z,8.15
2023-01-02T03:27:03.524Z,7.95
2023-01-02T03:28:09.216Z,8.05
2023-01-02T03:29:18.446Z,9.07
2023-01-02T03:30:22.588Z,8.52
2023-01-02T03:31:27.107Z,8.15
2023-01-02T03:32:33.699Z,8.63
2023-01-02T03:33:39.993Z,8.93
2023-01-02T03:34:43.884Z,8.68
2023-01-02T03:36:08.555Z,8.27
2023-01-02T03:37:14.938Z,7.53
2023-01-02T03:38:26.561Z,8.25
2023-01-02T03:39:31.766Z,8.75
2023-01-02T03:40:39.393Z,8.63
2023-01-02T03:41:51.701Z,9.05
2023-01-02T03:43:18.964Z,9.00
2023-01-02T03:44:23.860Z,9.05
2023-01-02T03:45:32.463Z,7.32
2023-01-02T03:46:56.932Z,7.53
2023-01-02T03:48:21.887Z,8.18
2023-01-02T03:49:33.290Z,8.98
2023-01-02T03:50:56.471Z,9.02
2023-01-02T03:51:59.476Z,8.73
2023-01-02T03:53:02.449Z,9.02
2023-01-02T03:54:06.149Z,10.07
2023-01-02T03:55:09.592Z,9.15
2023-01-02T03:56:30.723Z,9.48
2023-01-02T03:57:34.620Z,8.40
2023-01-02T03:59:04.577Z,7.90
2023-01-02T04:00:16.038Z,8.38
2023-01-02T04:01:33.874Z,7.95
2023-01-02T04:02:48.553Z,8.27
2023-01-02T04:03:57.397Z,7.78
2023-01-02T04:05:04.265Z,8.52
2023-01-02T04:06:15.020Z,7.57
2023-01-02T04:08:33.612Z,7.85
2023-01-02T04:09:37.639Z,8.30
2023-01-02T04:10:43.542Z,8.05
2023-01-02T04:11:52.687Z,8.18
2023-01-02T04:12:58.703Z,8.20
2023-01-02T04:14:06.103Z,8.77
2023-01-02T04:15:11.548Z,8.68
2023-01-02T04:16:20.870Z,9.05
2023-01-02T04:17:25.443Z,7.95
2023-01-02T04:18:35.279Z,8.65
2023-01-02T04:19:50.437Z,7.77
2023-01-02T04:20:56.864Z,8.05
2023-01-02T04:22:04.874Z,7.88
2023-01-02T04:23:12.383Z,7.90
2023-01-02T04:24:21.981Z,7.65
2023-01-02T04:25:29.212Z,9.10
2023-01-02T04:26:35.492Z,8.52
2023-01-02T04:28:01.476Z,7.85
2023-01-02T04:29:04.260Z,8.00
2023-01-02T04:30:07.630Z,8.95
2023-01-02T04:31:22.157Z,8.60
2023-01-02T04:32:54.116Z,7.82
2023-01-02T04:33:59.252Z,8.00
2023-01-02T04:35:06.543Z,8.10
2023-01-02T04:36:11.045Z,8.10
2023-01-02T04:37:46.858Z,7.65
2023-01-02T04:38:49.754Z,7.07
2023-01-02T04:39:53.861Z,8.15
2023-01-02T04:40:56.597Z,7.78
2023-01-02T04:41:59.307Z,8.52
2023-01-02T04:43:01.973Z,9.00
2023-01-02T04:44:05.151Z,9.88
2023-01-02T04:45:08.557Z,7.93
2023-01-02T04:46:11.285Z,8.35
2023-01-02T04:47:19.813Z,7.90
2023-01-02T04:48:24.698Z,8.82
2023-01-02T04:49:27.365Z,8.80
2023-01-02T04:50:30.126Z,8.90
2023-01-02T04:51:32.860Z,8.13
2023-01-02T04:52:37.338Z,9.45
2023-01-02T04:53:40.622Z,9.48
2023-01-02T04:54:45.744Z,8.63
2023-01-02T04:55:48.431Z,8.40
2023-01-02T04:56:51.238Z,9.55
2023-01-02T04:57:53.901Z,8.73
2023-01-02T04:58:56.560Z,8.60
2023-01-02T04:59:59.411Z,9.27
2023-01-02T05:01:02.155Z,8.38
2023-01-02T05:02:04.894Z,7.55
2023-01-02T05:03:07.770Z,8.20
2023-01-02T05:04:10.485Z,8.48
2023-01-02T05:05:13.237Z,8.43
2023-01-02T05:06:16.253Z,7.90
2023-01-02T05:07:18.965Z,8.40
2023-01-02T05:08:21.684Z,8.38
2023-01-02T05:09:24.459Z,8.48
2023-01-02T05:10:27.120Z,9.10
2023-01-02T05:11:29.774Z,7.60
2023-01-02T05:12:36.795Z,8.32
2023-01-02T05:13:39.770Z,8.75
2023-01-02T05:14:42.713Z,8.60
2023-01-02T05:15:45.411Z,8.98
2023-01-02T05:16:48.175Z,8.50
2023-01-02T05:17:50.960Z,8.40
2023-01-02T05:18:53.665Z,8.10
2023-01-02T05:19:56.419Z,8.40
2023-01-02T05:21:44.277Z,8.75
2023-01-02T05:23:05.730Z,7.55
2023-01-02T05:24:08.491Z,8.57
2023-01-02T05:25:11.177Z,8.32
2023-01-02T05:26:14.407Z,8.60
2023-01-02T05:27:17.309Z,8.30
2023-01-02T05:28:19.990Z,8.20
2023-01-02T05:29:22.819Z,8.25
2023-01-02T05:30:26.814Z,8.45
2023-01-02T05:31:29.719Z,8.27
2023-01-02T05:32:32.454Z,8.25
2023-01-02T05:33:35.328Z,8.48
2023-01-02T05:34:38.096Z,8.18
2023-01-02T05:35:40.856Z,8.48
2023-01-02T05:36:43.998Z,8.68
2023-01-02T05:37:46.845Z,7.82
2023-01-02T05:38:49.732Z,8.05
2023-01-02T05:39:52.383Z,8.00
2023-01-02T05:41:13.257Z,8.48
2023-01-02T05:43:18.590Z,7.15
2023-01-02T05:44:21.276Z,8.35
2023-01-02T05:45:24.124Z,8.27
2023-01-02T05:46:26.755Z,8.48
2023-01-02T05:47:29.570Z,7.78
2023-01-02T05:48:32.336Z,8.65
2023-01-02T05:49:35.059Z,7.53
2023-01-02T05:50:37.736Z,7.85
2023-01-02T05:51:40.412Z,7.85
2023-01-02T05:52:45.777Z,7.60
2023-01-02T05:53:48.878Z,7.28
2023-01-02T05:54:51.599Z,8.50
2023-01-02T05:55:54.353Z,7.68
2023-01-02T05:56:57.171Z,8.45
2023-01-02T05:58:02.372Z,8.02
2023-01-02T05:59:08.212Z,7.57
2023-01-02T06:00:11.536Z,8.48
2023-01-02T06:01:26.097Z,7.70
2023-01-02T06:02:28.937Z,8.63
2023-01-02T06:03:31.886Z,8.52
2023-01-02T06:04:34.736Z,8.73
2023-01-02T06:05:37.429Z,7.07
2023-01-02T06:06:40.922Z,7.25
2023-01-02T06:07:43.692Z,7.63
2023-01-02T06:08:46.403Z,7.93
2023-01-02T06:09:49.246Z,8.18
2023-01-02T06:10:52.404Z,9.13
2023-01-02T06:11:55.097Z,7.75
2023-01-02T06:12:57.812Z,7.28
2023-01-02T06:14:00.835Z,8.10
2023-01-02T06:15:03.955Z,8.20
2023-01-02T06:16:08.191Z,7.75
2023-01-02T06:17:10.923Z,8.18
2023-01-02T06:18:13.666Z,7.80
2023-01-02T06:19:16.580Z,8.23
2023-01-02T06:20:19.296Z,7.85
2023-01-02T06:21:22.669Z,7.55
2023-01-02T06:22:25.506Z,8.40
2023-01-02T06:23:28.751Z,9.13
2023-01-02T06:24:31.508Z,8.05
2023-01-02T06:25:34.858Z,8.10
2023-01-02T06:26:37.597Z,9.50
2023-01-02T06:27:40.383Z,7.95
2023-01-02T06:28:44.022Z,8.50
2023-01-02T06:29:46.782Z,8.55
2023-01-02T06:30:49.459Z,7.95
2023-01-02T06:31:52.348Z,7.38
2023-01-02T06:32:56.552Z,7.85
2023-01-02T06:34:00.457Z,8.20
2023-01-02T06:35:03.309Z,8.25
2023-01-02T06:36:08.695Z,7.63
2023-01-02T06:37:11.368Z,8.23
2023-01-02T06:38:14.012Z,8.68
2023-01-02T06:39:16.777Z,8.43
2023-01-02T06:40:19.784Z,8.07
2023-01-02T06:41:22.618Z,7.88
2023-01-02T06:42:25.416Z,8.32
2023-01-02T06:43:29.365Z,8.15
2023-01-02T06:44:32.235Z,8.98
2023-01-02T06:45:35.251Z,9.43
2023-01-02T06:46:37.957Z,8.45
2023-01-02T06:47:40.850Z,9.13
2023-01-02T06:48:44.197Z,8.68
2023-01-02T06:49:46.847Z,9.25
2023-01-02T06:50:49.466Z,9.65
2023-01-02T06:51:52.187Z,8.77
2023-01-02T06:52:55.529Z,9.48
2023-01-02T06:53:58.241Z,8.48
2023-01-02T06:55:01.111Z,9.65
2023-01-02T06:56:05.016Z,8.50
2023-01-02T06:57:08.034Z,7.90
2023-01-02T06:58:16.001Z,8.45
2023-01-02T06:59:21.908Z,7.88
2023-01-02T07:00:24.683Z,8.63
2023-01-02T07:01:27.471Z,8.48
2023-01-02T07:02:30.437Z,8.45
2023-01-02T07:03:33.283Z,8.05
2023-01-02T07:04:36.095Z,8.50
2023-01-02T07:05:38.833Z,9.48
2023-01-02T07:06:41.642Z,8.32
2023-01-02T07:07:44.364Z,7.72
2023-01-02T07:08:48.044Z,7.70
2023-01-02T07:09:50.851Z,8.73
2023-01-02T07:10:53.520Z,8.32
2023-01-02T07:11:56.727Z,8.07
2023-01-02T07:12:59.568Z,7.25
2023-01-02T07:14:02.503Z,8.05
2023-01-02T07:15:06.616Z,8.68
2023-01-02T07:16:12.235Z,7.97
2023-01-02T07:17:15.123Z,8.80
2023-01-02T07:18:17.952Z,8.80
2023-01-02T07:19:20.637Z,8.13
2023-01-02T07:20:23.365Z,7.55
2023-01-02T07:21:26.130Z,8.38
2023-01-02T07:22:28.909Z,8.18
2023-01-02T07:23:31.736Z,9.05
2023-01-02T07:24:34.466Z,9.35
2023-01-02T07:25:42.447Z,7.75
2023-01-02T07:26:47.033Z,7.78
2023-01-02T07:27:49.722Z,8.57
2023-01-02T07:28:52.531Z,8.65
2023-01-02T07:29:55.201Z,7.80
2023-01-02T07:30:59.616Z,7.65
2023-01-02T07:32:02.371Z,8.10
2023-01-02T07:33:05.150Z,7.65
2023-01-02T07:34:07.984Z,8.02
2023-01-02T07:35:11.190Z,7.25
2023-01-02T07:36:16.058Z,6.95
2023-01-02T07:37:18.808Z,7.03
2023-01-02T07:38:21.544Z,6.35
2023-01-02T07:39:24.702Z,7.47
2023-01-02T07:40:32.133Z,7.57
2023-01-02T07:41:36.245Z,6.95
2023-01-02T07:42:48.935Z,6.22
2023-01-02T07:43:54.462Z,6.85
2023-01-02T07:44:58.138Z,7.55
2023-01-02T07:46:04.756Z,7.70
2023-01-02T07:47:07.500Z,6.80
2023-01-02T07:48:10.256Z,7.10
2023-01-02T07:49:13.078Z,7.05
2023-01-02T07:50:16.009Z,7.53
2023-01-02T07:51:26.351Z,7.28
2023-01-02T07:52:31.236Z,6.97
2023-01-02T07:53:34.934Z,7.63
2023-01-02T07:54:38.814Z,7.32
2023-01-02T07:55:42.117Z,6.13
2023-01-02T07:56:48.738Z,6.65
2023-01-02T07:57:52.269Z,6.10
2023-01-02T07:58:55.763Z,7.03
2023-01-02T08:00:02.215Z,6.10
2023-01-02T08:01:14.893Z,6.85
2023-01-02T08:02:18.187Z,5.97
2023-01-02T08:03:22.315Z,6.10
2023-01-02T08:04:28.421Z,6.53
2023-01-02T08:05:35.351Z,7.13
2023-01-02T08:06:41.839Z,6.70
2023-01-02T08:07:45.854Z,6.95
2023-01-02T08:08:50.197Z,7.30
2023-01-02T08:09:53.348Z,8.82
2023-01-02T08:10:56.129Z,7.20
2023-01-02T08:11:58.969Z,7.15
2023-01-02T08:13:01.672Z,7.65
2023-01-02T08:14:05.173Z,6.85
2023-01-02T08:15:08.392Z,6.43
2023-01-02T08:16:21.777Z,5.80
2023-01-02T08:17:24.762Z,6.10
2023-01-02T08:18:27.560Z,6.03
2023-01-02T08:19:30.234Z,6.43
2023-01-02T08:20:32.930Z,6.50
2023-01-02T08:21:35.620Z,5.70
2023-01-02T08:22:38.403Z,6.10
2023-01-02T08:23:41.170Z,6.57
2023-01-02T08:24:43.896Z,6.25
2023-01-02T08:25:46.540Z,6.38
2023-01-02T08:26:49.402Z,5.68
2023-01-02T08:27:52.238Z,6.15
2023-01-02T08:28:55.008Z,6.68
2023-01-02T08:29:57.772Z,6.25
2023-01-02T08:31:00.849Z,6.00
2023-01-02T08:32:03.839Z,6.95
2023-01-02T08:33:07.322Z,6.07
2023-01-02T08:34:14.501Z,6.20
2023-01-02T08:35:17.446Z,6.45
2023-01-02T08:36:20.316Z,5.95
2023-01-02T08:37:22.976Z,6.72
2023-01-02T08:38:25.820Z,6.32
2023-01-02T08:39:30.145Z,6.25
2023-01-02T08:40:32.799Z,6.13
2023-01-02T08:41:37.887Z,6.57
2023-01-02T08:42:43.255Z,6.60
2023-01-02T08:43:45.982Z,6.60
2023-01-02T08:44:48.757Z,6.15
2023-01-02T08:45:51.532Z,5.78
2023-01-02T08:46:54.362Z,6.18
2023-01-02T08:47:57.087Z,6.72
2023-01-02T08:49:00.291Z,7.50
2023-01-02T08:50:03.062Z,6.40
2023-01-02T08:51:06.056Z,6.18
2023-01-02T08:52:09.092Z,7.07
2023-01-02T08:53:13.396Z,6.65
2023-01-02T08:54:16.083Z,6.38
2023-01-02T08:55:18.882Z,6.43
2023-01-02T08:56:30.533Z,6.55
2023-01-02T08:57:33.668Z,6.07
2023-01-02T08:58:36.441Z,5.47
2023-01-02T08:59:39.255Z,6.93
2023-01-02T09:00:42.100Z,6.55
2023-01-02T09:01:45.060Z,6.38
2023-01-02T09:02:48.065Z,7.07
2023-01-02T09:03:52.072Z,5.88
2023-01-02T09:04:54.837Z,6.32
2023-01-02T09:05:57.552Z,7.25
2023-01-02T09:07:00.349Z,7.40
2023-01-02T09:08:03.284Z,6.60
2023-01-02T09:09:11.455Z,6.25
2023-01-02T09:10:14.959Z,6.47
2023-01-02T09:11:20.111Z,7.97
2023-01-02T09:12:22.821Z,6.90
2023-01-02T09:13:25.518Z,7.20
2023-01-02T09:14:28.181Z,6.90
2023-01-02T09:15:31.891Z,7.75
2023-01-02T09:16:34.774Z,8.55
2023-01-02T09:17:37.424Z,7.35
2023-01-02T09:18:41.055Z,8.07
2023-01-02T09:19:45.083Z,7.15
2023-01-02T09:20:47.773Z,7.07
2023-01-02T09:21:50.776Z,6.97
2023-01-02T09:22:53.544Z,6.70
2023-01-02T09:23:56.497Z,6.72
2023-01-02T09:24:59.347Z,6.50
2023-01-02T09:26:04.252Z,5.43
2023-01-02T09:27:06.997Z,6.20
2023-01-02T09:28:09.718Z,6.45
2023-01-02T09:29:14.094Z,5.22
2023-01-02T09:30:16.957Z,5.65
2023-01-02T09:31:20.638Z,5.70
2023-01-02T09:32:23.391Z,6.85
2023-01-02T09:33:26.401Z,5.93
2023-01-02T09:34:29.213Z,5.60
2023-01-02T09:35:31.879Z,5.82
2023-01-02T09:36:34.578Z,6.20
2023-01-02T09:37:38.621Z,6.53
2023-01-02T09:38:41.671Z,5.80
2023-01-02T09:39:44.420Z,5.60
2023-01-02T09:40:53.456Z,5.65
2023-01-02T09:41:59.098Z,5.97
2023-01-02T09:43:02.404Z,5.53
2023-01-02T09:44:11.526Z,5.88
2023-01-02T09:45:14.532Z,6.50
2023-01-02T09:46:37.492Z,6.10
2023-01-02T09:47:42.112Z,5.75
2023-01-02T09:48:44.917Z,6.13
2023-01-02T09:49:56.513Z,6.47
2023-01-02T09:51:04.098Z,11.02
2023-01-02T09:53:16.716Z,6.82
2023-01-02T09:54:23.911Z,7.13
2023-01-02T09:55:42.759Z,6.35
2023-01-02T09:56:48.543Z,6.75
2023-01-02T09:58:29.942Z,5.57
2023-01-02T09:59:35.057Z,5.72
2023-01-02T10:00:38.915Z,5.80
2023-01-02T10:01:41.752Z,5.63
2023-01-02T10:03:37.917Z,5.30
2023-01-02T10:05:12.290Z,6.15
2023-01-02T10:06:19.453Z,6.43
2023-01-02T10:07:39.124Z,6.13
2023-01-02T10:08:47.271Z,5.85
2023-01-02T10:09:56.506Z,5.35
2023-01-02T10:11:20.509Z,7.10
2023-01-02T10:12:34.389Z,6.47
2023-01-02T10:14:17.242Z,6.95
2023-01-02T10:15:14.057Z,6.28
2023-01-02T10:16:23.855Z,6.43
2023-01-02T10:17:29.811Z,6.57
2023-01-02T10:18:40.457Z,5.88
2023-01-02T10:20:01.914Z,6.15
2023-01-02T10:21:11.875Z,7.85
2023-01-02T10:22:19.735Z,6.90
2023-01-02T10:23:27.971Z,6.78
2023-01-02T10:24:54.997Z,6.85
2023-01-02T10:26:03.973Z,6.70
2023-01-02T10:27:14.869Z,6.65
2023-01-02T10:28:22.509Z,7.10
2023-01-02T10:29:35.538Z,6.13
2023-01-02T10:30:43.405Z,5.85
2023-01-02T10:31:53.371Z,7.72
2023-01-02T10:33:02.875Z,7.63
2023-01-02T10:34:13.730Z,8.52
2023-01-02T10:35:23.560Z,7.57
2023-01-02T10:36:28.897Z,7.30
2023-01-02T10:37:31.716Z,7.70
2023-01-02T10:38:38.681Z,7.03
2023-01-02T10:39:45.345Z,6.82
2023-01-02T10:40:50.256Z,5.90
2023-01-02T10:41:56.261Z,6.65
2023-01-02T10:43:00.258Z,6.00
2023-01-02T10:44:05.812Z,6.38
2023-01-02T10:45:14.487Z,6.22
2023-01-02T10:46:17.255Z,5.45
2023-01-02T10:47:38.990Z,6.40
2023-01-02T10:48:45.691Z,5.95
2023-01-02T10:49:53.719Z,5.57
2023-01-02T10:51:01.712Z,6.35
2023-01-02T10:52:20.312Z,6.10
2023-01-02T10:53:33.211Z,7.13
2023-01-02T10:55:00.122Z,6.68
2023-01-02T10:56:05.560Z,8.25
2023-01-02T10:57:13.536Z,7.47
2023-01-02T10:58:28.221Z,8.48
2023-01-02T10:59:31.002Z,7.15
2023-01-02T11:00:35.884Z,7.28
2023-01-02T11:01:56.640Z,8.32
2023-01-02T11:04:03.049Z,7.25
2023-01-02T11:05:19.375Z,6.75
2023-01-02T11:06:30.174Z,6.72
2023-01-02T11:07:39.856Z,7.85
2023-01-02T11:08:42.538Z,7.60
2023-01-02T11:09:56.560Z,8.05
2023-01-02T11:11:01.777Z,7.05
2023-01-02T11:12:07.534Z,8.35
2023-01-02T11:13:16.045Z,6.80
2023-01-02T11:14:25.966Z,7.53
2023-01-02T11:15:36.149Z,6.35
2023-01-02T11:16:40.205Z,5.80
2023-01-02T11:17:44.436Z,7.00
2023-01-02T11:18:55.342Z,7.20
2023-01-02T11:19:58.096Z,6.57
2023-01-02T11:21:05.728Z,6.13
2023-01-02T11:22:09.902Z,6.28
2023-01-02T11:23:14.020Z,6.78
2023-01-02T11:24:19.939Z,7.00
2023-01-02T11:25:28.432Z,6.50
2023-01-02T11:26:32.720Z,7.05
2023-01-02T11:27:38.247Z,6.38
2023-01-02T11:28:41.358Z,6.50
2023-01-02T11:29:48.157Z,7.50
2023-01-02T11:30:55.939Z,6.70
2023-01-02T11:32:02.982Z,7.20
2023-01-02T11:33:21.727Z,6.40
2023-01-02T11:34:30.005Z,6.18
2023-01-02T11:35:48.028Z,6.82
2023-01-02T11:37:02.956Z,5.95
2023-01-02T11:38:13.601Z,5.80
2023-01-02T11:39:24.139Z,6.10
2023-01-02T11:40:29.009Z,6.25
2023-01-02T11:41:58.424Z,6.13
2023-01-02T11:43:24.555Z,6.10
2023-01-02T11:44:54.927Z,5.97
2023-01-02T11:45:57.776Z,6.63
2023-01-02T11:47:01.513Z,6.63
2023-01-02T11:48:15.618Z,6.85
2023-01-02T11:49:21.177Z,6.72
2023-01-02T11:50:26.800Z,6.85
2023-01-02T11:51:33.491Z,6.25
2023-01-02T11:52:44.741Z,6.50
2023-01-02T11:53:50.328Z,6.70
2023-01-02T11:55:13.365Z,6.32
2023-01-02T11:56:29.362Z,5.72
2023-01-02T11:57:47.581Z,5.90
2023-01-02T11:59:09.027Z,6.57
2023-01-02T12:00:14.068Z,6.15
2023-01-02T12:01:29.796Z,5.43
2023-01-02T12:02:39.956Z,5.55
2023-01-02T12:03:42.873Z,5.60
2023-01-02T12:04:45.602Z,6.07
2023-01-02T12:05:48.760Z,6.43
2023-01-02T12:07:28.586Z,6.80
2023-01-02T12:09:08.408Z,6.53
2023-01-02T12:10:14.443Z,5.80
2023-01-02T12:11:26.650Z,6.38
2023-01-02T12:12:50.240Z,5.47
2023-01-02T12:14:05.869Z,5.70
2023-01-02T12:15:08.560Z,6.10
2023-01-02T12:16:48.585Z,5.70
2023-01-02T12:18:12.670Z,5.57
2023-01-02T12:19:39.651Z,5.07
2023-01-02T12:21:26.937Z,6.47
2023-01-02T12:23:12.107Z,5.63
2023-01-02T12:24:36.036Z,6.15
2023-01-02T12:25:42.742Z,6.15
2023-01-02T12:26:54.352Z,5.38
2023-01-02T12:28:16.254Z,6.38
2023-01-02T12:30:13.358Z,6.07
2023-01-02T12:31:24.491Z,6.22
2023-01-02T12:32:57.593Z,6.32
2023-01-02T12:34:07.646Z,5.95
2023-01-02T12:35:33.417Z,6.18
2023-01-02T12:36:36.123Z,6.47
2023-01-02T12:37:51.397Z,6.57
2023-01-02T12:39:22.337Z,6.45
2023-01-02T12:42:01.963Z,5.95
2023-01-02T12:43:25.646Z,6.70
2023-01-02T12:44:34.516Z,6.15
2023-01-02T12:45:54.725Z,5.88
2023-01-02T12:46:57.602Z,6.47
2023-01-02T12:48:19.027Z,6.90
2023-01-02T12:49:44.992Z,6.82
2023-01-02T12:51:02.581Z,6.03
2023-01-02T12:52:14.022Z,5.93
2023-01-02T12:53:16.780Z,6.57
2023-01-02T12:54:40.913Z,5.93
2023-01-02T12:56:21.954Z,6.30
2023-01-02T12:57:44.894Z,5.60
2023-01-02T12:59:01.638Z,6.50
2023-01-02T13:00:32.406Z,6.07
2023-01-02T13:01:52.150Z,6.43
2023-01-02T13:03:22.463Z,5.80
2023-01-02T13:04:41.542Z,6.05
2023-01-02T13:05:48.299Z,5.78
2023-01-02T13:07:09.207Z,6.85
2023-01-02T13:09:41.553Z,6.22
2023-01-02T13:10:44.789Z,6.25
2023-01-02T13:11:54.965Z,5.95
2023-01-02T13:13:00.435Z,7.50
2023-01-02T13:14:05.060Z,6.30
2023-01-02T13:15:13.932Z,5.40
2023-01-02T13:16:25.241Z,6.10
2023-01-02T13:17:49.764Z,6.07
2023-01-02T13:19:16.461Z,5.65
2023-01-02T13:20:31.191Z,6.07
2023-01-02T13:22:04.089Z,6.05
2023-01-02T13:23:22.397Z,7.00
2023-01-02T13:24:26.641Z,6.68
2023-01-02T13:25:30.867Z,6.32
2023-01-02T13:26:33.697Z,7.07
2023-01-02T13:27:36.591Z,5.70
2023-01-02T13:29:22.963Z,6.00
2023-01-02T13:30:34.377Z,5.57
2023-01-02T13:31:48.076Z,5.78
2023-01-02T13:32:51.278Z,6.32
2023-01-02T13:33:55.245Z,6.50
2023-01-02T13:35:01.557Z,6.43
2023-01-02T13:36:22.560Z,5.80
2023-01-02T13:37:26.668Z,7.05
2023-01-02T13:38:31.252Z,8.10
2023-01-02T13:39:39.746Z,7.72
2023-01-02T13:40:42.640Z,8.13
2023-01-02T13:42:09.863Z,7.75
2023-01-02T13:43:17.103Z,8.25
2023-01-02T13:44:31.816Z,8.02
2023-01-02T13:45:37.666Z,8.30
2023-01-02T13:48:05.968Z,8.20
2023-01-02T13:49:16.641Z,8.85
2023-01-02T13:51:33.535Z,11.02
2023-01-02T13:52:36.461Z,9.65
2023-01-02T13:53:43.137Z,21.02
2023-01-02T13:55:10.616Z,15.63
2023-01-02T13:56:24.541Z,13.13
2023-01-02T13:57:27.235Z,11.30
2023-01-02T13:58:59.134Z,10.57
2023-01-02T14:00:33.916Z,7.05
2023-01-02T14:01:42.752Z,7.20
2023-01-02T14:03:20.792Z,7.93
2023-01-02T14:04:28.397Z,6.32
2023-01-02T14:06:06.380Z,6.82
2023-01-02T14:07:28.943Z,7.07
2023-01-02T14:08:39.889Z,6.55
2023-01-02T14:10:05.164Z,6.32
2023-01-02T14:11:57.803Z,5.57
2023-01-02T14:13:05.727Z,6.20
2023-01-02T14:14:34.714Z,6.32
2023-01-02T14:15:57.061Z,6.95
2023-01-02T14:17:18.036Z,5.88
2023-01-02T14:19:33.150Z,6.43
2023-01-02T14:20:36.996Z,7.38
2023-01-02T14:21:55.049Z,6.45
2023-01-02T14:23:03.521Z,6.45
2023-01-02T14:24:16.906Z,5.60
2023-01-02T14:25:22.248Z,6.25
2023-01-02T14:26:34.121Z,6.45
2023-01-02T14:27:37.109Z,5.72
2023-01-02T14:28:40.246Z,6.55
2023-01-02T14:29:55.192Z,7.03
2023-01-02T14:30:58.313Z,6.07
2023-01-02T14:32:07.226Z,6.90
2023-01-02T14:33:15.717Z,6.20
2023-01-02T14:34:25.808Z,6.65
2023-01-02T14:35:37.965Z,4.07
2023-01-02T14:36:45.846Z,6.35
2023-01-02T14:37:50.649Z,5.45
2023-01-02T14:38:55.577Z,7.30
2023-01-02T14:40:19.101Z,7.35
2023-01-02T14:42:08.144Z,7.75
2023-01-02T14:43:31.601Z,6.18
2023-01-02T14:44:42.279Z,6.07
2023-01-02T14:46:52.541Z,6.65
2023-01-02T14:47:59.981Z,6.45
2023-01-02T14:49:24.857Z,6.90
2023-01-02T14:50:33.917Z,5.95
2023-01-02T14:51:49.542Z,5.40
2023-01-02T14:53:16.428Z,5.38
2023-01-02T14:54:28.965Z,5.68
2023-01-02T14:55:41.390Z,6.55
2023-01-02T14:56:48.710Z,6.53
2023-01-02T14:57:53.576Z,8.00
2023-01-02T14:58:57.097Z,6.22
2023-01-02T15:00:04.103Z,6.03
2023-01-02T15:01:08.519Z,6.57
2023-01-02T15:02:17.687Z,6.82
2023-01-02T15:03:53.390Z,5.57
2023-01-02T15:05:06.252Z,6.22
2023-01-02T15:06:17.357Z,6.68
2023-01-02T15:07:26.993Z,6.15
2023-01-02T15:08:49.262Z,6.78
2023-01-02T15:09:55.071Z,6.63
2023-01-02T15:11:22.636Z,8.48
2023-01-02T15:12:46.448Z,8.00
2023-01-02T15:14:04.474Z,8.27
2023-01-02T15:15:12.032Z,7.50
2023-01-02T15:16:15.536Z,8.00
2023-01-02T15:17:21.030Z,8.13
2023-01-02T15:18:29.389Z,8.15
2023-01-02T15:19:33.502Z,8.77
2023-01-02T15:20:36.473Z,7.65
2023-01-02T15:21:40.230Z,8.95
2023-01-02T15:22:43.185Z,9.95
2023-01-02T15:23:47.785Z,9.48
2023-01-02T15:24:52.667Z,10.23
2023-01-02T15:26:32.747Z,10.65
2023-01-02T15:27:28.856Z,9.15